Time;durP1;ratioP1;P1;durP2;ratioP2;P2;SDS_P1;SDS_P2;PMS_P1;PMS_P2;Temp;Humidity;BMP_temperature;BMP_pressure;BME280_temperature;BME280_humidity;BME280_pressure;Samples;Min_cycle;Max_cycle;Signal;HPM_P1;HPM_P2
2021/09/30 00:00:07;;;;;;;8.25;2.22;;;7.30;99.90;;;;;;5109961;28;20024;-58
2021/09/30 00:02:33;;;;;;;11.73;2.35;;;7.30;99.90;;;;;;5107591;28;20023;-60
2021/09/30 00:04:59;;;;;;;5.75;2.35;;;7.30;99.90;;;;;;5104939;28;20491;-59
2021/09/30 00:07:25;;;;;;;5.10;2.35;;;7.20;99.90;;;;;;5097756;28;20130;-59
2021/09/30 00:09:51;;;;;;;6.35;2.38;;;7.20;99.90;;;;;;5090261;28;20084;-59
2021/09/30 00:12:24;;;;;;;8.68;2.60;;;7.20;99.90;;;;;;5111778;28;20085;-59
2021/09/30 00:14:54;;;;;;;8.90;2.58;;;7.20;99.90;;;;;;5103415;28;20114;-58
2021/09/30 00:32:34;;;;;;;12.48;2.45;;;7.20;99.90;;;;;;5106253;28;20055;-59
2021/09/30 00:42:10;;;;;;;9.88;2.08;;;7.20;99.90;;;;;;5108789;28;20065;-60
2021/09/30 00:47:47;;;;;;;6.50;2.17;;;7.10;99.90;;;;;;5112503;28;20038;-59
2021/09/30 00:52:57;;;;;;;4.53;2.03;;;7.00;99.90;;;;;;5110770;28;20034;-58
2021/09/30 01:45:49;;;;;;;9.35;1.83;;;7.40;99.90;;;;;;5108864;28;20058;-59
2021/09/30 02:34:42;;;;;;;5.53;1.90;;;7.70;99.90;;;;;;5106243;28;20393;-57
2021/09/30 02:58:58;;;;;;;4.45;1.95;;;7.00;99.90;;;;;;5106038;28;20187;-57
2021/09/30 03:01:28;;;;;;;10.90;2.00;;;6.90;99.90;;;;;;5105041;28;20085;-57
2021/09/30 03:03:56;;;;;;;6.50;1.95;;;6.90;99.90;;;;;;5103733;28;20798;-59
2021/09/30 03:06:24;;;;;;;6.25;2.55;;;6.90;99.90;;;;;;5106469;28;20504;-57
2021/09/30 03:08:53;;;;;;;5.13;2.20;;;6.90;99.90;;;;;;5103457;28;20110;-58
2021/09/30 03:11:22;;;;;;;7.68;2.55;;;6.90;99.90;;;;;;5088580;28;20051;-58
2021/09/30 03:13:50;;;;;;;10.68;2.10;;;6.80;99.90;;;;;;5105726;28;20042;-58
2021/09/30 03:19:17;;;;;;;4.38;1.80;;;6.70;99.90;;;;;;5107819;28;20039;-60
2021/09/30 03:24:28;;;;;;;7.45;2.05;;;6.60;99.90;;;;;;5111353;28;20377;-60
2021/09/30 03:26:54;;;;;;;4.68;1.80;;;6.50;99.90;;;;;;5105409;28;20039;-58
2021/09/30 03:29:20;;;;;;;9.65;2.45;;;6.50;99.90;;;;;;5110850;28;20047;-60
2021/09/30 03:31:48;;;;;;;7.18;3.03;;;6.50;99.90;;;;;;5111984;28;20132;-59
2021/09/30 03:34:14;;;;;;;5.82;2.42;;;6.50;99.90;;;;;;5103797;28;20031;-59
2021/09/30 03:36:39;;;;;;;11.93;2.88;;;6.40;99.90;;;;;;5104212;28;20035;-59
2021/09/30 03:39:08;;;;;;;7.03;2.80;;;6.40;99.90;;;;;;5112184;28;20054;-59
2021/09/30 03:41:34;;;;;;;10.50;2.20;;;6.40;99.90;;;;;;5105528;28;20066;-58
2021/09/30 03:43:59;;;;;;;9.77;2.63;;;6.30;99.90;;;;;;5110130;28;20043;-59
2021/09/30 03:46:27;;;;;;;10.75;2.60;;;6.30;99.90;;;;;;5106630;28;20057;-59
2021/09/30 03:48:55;;;;;;;7.75;2.30;;;6.30;99.90;;;;;;5104230;28;20029;-55
2021/09/30 03:51:32;;;;;;;7.35;2.70;;;6.30;99.90;;;;;;5111701;28;20024;-58
2021/09/30 03:54:12;;;;;;;15.55;2.65;;;6.30;99.90;;;;;;5105680;28;20550;-57
2021/09/30 03:57:23;;;;;;;5.25;2.40;;;6.40;99.90;;;;;;5108259;28;20103;-59
2021/09/30 03:59:23;;;;;;;11.35;2.80;;;6.40;99.90;;;;;;5096719;28;20127;-59
2021/09/30 04:01:58;;;;;;;9.18;2.38;;;6.60;99.90;;;;;;5112228;28;20115;-59
2021/09/30 04:04:26;;;;;;;6.85;2.45;;;6.70;99.90;;;;;;5110337;28;20381;-60
2021/09/30 04:06:53;;;;;;;9.27;2.45;;;6.70;99.90;;;;;;5112070;28;20043;-57
2021/09/30 04:09:23;;;;;;;11.25;2.60;;;6.80;99.90;;;;;;5086818;28;20489;-58
2021/09/30 04:11:49;;;;;;;5.88;2.67;;;6.90;99.90;;;;;;5108237;28;20043;-58
2021/09/30 04:14:14;;;;;;;9.27;2.47;;;6.90;99.90;;;;;;5111438;28;20039;-60
2021/09/30 04:16:44;;;;;;;7.00;3.05;;;7.00;99.90;;;;;;5107870;27;20039;-56
2021/09/30 04:19:12;;;;;;;9.45;2.42;;;7.00;99.90;;;;;;5105810;28;20036;-54
2021/09/30 04:21:37;;;;;;;5.60;2.03;;;7.00;99.90;;;;;;5108514;28;20035;-55
2021/09/30 04:24:03;;;;;;;5.75;2.10;;;7.00;99.90;;;;;;5106901;28;20023;-59
2021/09/30 04:26:29;;;;;;;6.65;2.38;;;6.90;99.90;;;;;;5105606;28;20542;-60
2021/09/30 04:28:54;;;;;;;8.02;2.00;;;6.80;99.90;;;;;;5110300;28;20031;-57
2021/09/30 04:31:23;;;;;;;7.95;2.75;;;6.70;99.90;;;;;;5109898;28;20035;-58
2021/09/30 04:33:49;;;;;;;6.60;2.03;;;6.60;99.90;;;;;;5108438;28;20067;-59
2021/09/30 04:36:15;;;;;;;7.68;2.50;;;6.60;99.90;;;;;;5105727;28;20093;-59
2021/09/30 04:38:40;;;;;;;6.00;2.45;;;6.50;99.90;;;;;;5101726;28;20027;-58
2021/09/30 04:41:06;;;;;;;12.07;2.95;;;6.50;99.90;;;;;;5101151;28;20119;-57
2021/09/30 04:43:31;;;;;;;9.85;2.83;;;6.40;99.90;;;;;;5106642;28;20038;-58
2021/09/30 04:45:57;;;;;;;12.95;2.70;;;6.40;99.90;;;;;;5106486;28;20027;-61
2021/09/30 04:48:22;;;;;;;6.00;2.13;;;6.30;99.90;;;;;;5110370;28;20027;-59
2021/09/30 04:50:48;;;;;;;5.00;2.30;;;6.30;99.90;;;;;;5108174;28;20040;-58
2021/09/30 04:53:14;;;;;;;3.78;1.80;;;6.20;99.90;;;;;;5111451;28;20043;-58
2021/09/30 04:55:39;;;;;;;10.23;3.60;;;6.20;99.90;;;;;;5106834;28;20032;-59
2021/09/30 04:58:05;;;;;;;8.93;2.65;;;6.20;99.90;;;;;;5110690;28;20116;-58
2021/09/30 05:00:30;;;;;;;9.75;2.03;;;6.20;99.90;;;;;;5104685;28;20032;-59
2021/09/30 05:02:56;;;;;;;11.23;2.10;;;6.20;99.90;;;;;;5111429;28;20122;-57
2021/09/30 05:05:22;;;;;;;5.50;2.28;;;6.20;99.90;;;;;;5105399;27;20082;-58
2021/09/30 05:07:47;;;;;;;8.15;2.47;;;6.20;99.90;;;;;;5106542;28;20026;-58
2021/09/30 05:10:17;;;;;;;7.28;2.58;;;6.20;99.90;;;;;;5087437;28;20043;-54
2021/09/30 05:12:43;;;;;;;9.00;2.42;;;6.20;99.90;;;;;;5103462;28;20106;-55
2021/09/30 05:15:09;;;;;;;9.25;2.88;;;6.20;99.90;;;;;;5110129;28;20208;-57
2021/09/30 05:17:35;;;;;;;14.13;2.97;;;6.20;99.90;;;;;;5105772;28;20035;-56
2021/09/30 05:20:01;;;;;;;6.65;2.50;;;6.20;99.90;;;;;;5100329;28;20035;-58
2021/09/30 05:22:26;;;;;;;11.75;2.30;;;6.20;99.90;;;;;;5106186;28;20020;-57
2021/09/30 05:24:52;;;;;;;6.72;2.42;;;6.20;99.90;;;;;;5107113;28;20027;-60
2021/09/30 05:27:17;;;;;;;6.35;2.83;;;6.20;99.90;;;;;;5108941;28;20035;-59
2021/09/30 05:29:43;;;;;;;10.15;3.00;;;6.20;99.90;;;;;;5104652;28;20031;-57
2021/09/30 05:32:08;;;;;;;16.42;7.03;;;6.20;99.90;;;;;;5111091;28;20026;-58
2021/09/30 05:34:34;;;;;;;18.45;8.40;;;6.20;99.90;;;;;;5106553;28;20036;-58
2021/09/30 05:36:59;;;;;;;16.35;7.45;;;6.10;99.90;;;;;;5107679;28;20388;-58
2021/09/30 05:39:25;;;;;;;11.02;5.00;;;6.10;99.90;;;;;;5103213;28;20100;-59
2021/09/30 05:41:53;;;;;;;15.57;4.43;;;6.20;99.90;;;;;;5103131;28;20164;-58
2021/09/30 05:44:23;;;;;;;5.68;3.40;;;6.20;99.90;;;;;;5102617;28;20016;-59
2021/09/30 05:46:53;;;;;;;11.02;2.85;;;6.20;99.90;;;;;;5104185;28;20038;-57
2021/09/30 05:49:20;;;;;;;10.93;3.10;;;6.20;99.90;;;;;;5105758;28;20070;-59
2021/09/30 05:51:45;;;;;;;10.90;3.30;;;6.30;99.90;;;;;;5108011;27;20059;-57
2021/09/30 05:54:11;;;;;;;10.32;3.35;;;6.40;99.90;;;;;;5106030;28;20059;-58
2021/09/30 05:56:36;;;;;;;7.90;3.22;;;6.50;99.90;;;;;;5109160;28;20038;-59
2021/09/30 05:59:02;;;;;;;6.63;2.88;;;6.60;99.90;;;;;;5104850;28;20036;-59
2021/09/30 06:14:45;;;;;;;10.60;3.30;;;6.90;99.90;;;;;;5100690;28;20032;-59
2021/09/30 06:17:11;;;;;;;23.13;4.85;;;6.90;99.90;;;;;;5105029;28;20032;-57
2021/09/30 06:19:37;;;;;;;17.45;3.08;;;7.00;99.90;;;;;;5108941;28;20052;-59
2021/09/30 06:22:06;;;;;;;9.43;3.00;;;7.00;99.90;;;;;;5104483;28;20122;-59
2021/09/30 06:24:33;;;;;;;12.73;2.83;;;7.10;99.90;;;;;;5109293;28;20066;-59
2021/09/30 06:26:59;;;;;;;8.27;2.92;;;7.10;99.90;;;;;;5108773;28;20106;-60
2021/09/30 06:29:24;;;;;;;8.55;3.08;;;7.20;99.90;;;;;;5105208;28;20114;-57
2021/09/30 06:31:50;;;;;;;17.65;3.22;;;7.30;99.90;;;;;;5103376;28;20046;-54
2021/09/30 06:34:16;;;;;;;12.05;3.70;;;7.40;99.90;;;;;;5104213;28;20028;-57
2021/09/30 06:36:41;;;;;;;9.40;2.95;;;7.50;99.90;;;;;;5107013;28;20818;-59
2021/09/30 06:39:07;;;;;;;9.07;2.20;;;7.80;99.90;;;;;;5100324;28;20046;-60
2021/09/30 06:41:32;;;;;;;7.50;2.17;;;8.40;99.90;;;;;;5103601;28;20090;-59
2021/09/30 06:43:58;;;;;;;7.75;1.95;;;9.30;99.90;;;;;;5100764;28;20553;-52
2021/09/30 06:46:24;;;;;;;12.60;1.60;;;9.90;99.90;;;;;;5103809;28;20043;-58
2021/09/30 06:48:50;;;;;;;6.70;2.47;;;10.80;99.90;;;;;;5101722;28;20058;-58
2021/09/30 06:51:15;;;;;;;7.30;2.90;;;11.20;99.90;;;;;;5106563;28;20115;-55
2021/09/30 06:53:41;;;;;;;5.35;2.20;;;11.70;99.90;;;;;;5107573;28;20028;-58
2021/09/30 06:56:12;;;;;;;6.22;2.17;;;12.20;99.90;;;;;;5104274;28;20073;-57
2021/09/30 06:58:43;;;;;;;5.22;1.77;;;13.10;99.90;;;;;;5100017;28;20020;-58
2021/09/30 07:01:09;;;;;;;5.50;1.98;;;13.90;99.90;;;;;;5100349;28;20024;-57
2021/09/30 07:03:35;;;;;;;6.97;2.00;;;13.50;99.90;;;;;;5099916;28;20139;-57
2021/09/30 07:06:01;;;;;;;12.07;2.17;;;12.80;99.90;;;;;;5104545;28;20447;-57
2021/09/30 07:08:26;;;;;;;6.53;2.67;;;12.40;99.90;;;;;;5105508;28;20106;-58
2021/09/30 07:10:52;;;;;;;5.22;2.03;;;12.00;99.90;;;;;;5087679;28;20040;-57
2021/09/30 07:13:17;;;;;;;11.25;2.83;;;11.50;99.90;;;;;;5104419;28;20056;-54
2021/09/30 07:15:43;;;;;;;5.15;2.55;;;11.00;99.90;;;;;;5097818;28;20030;-57
2021/09/30 07:18:13;;;;;;;14.02;2.60;;;10.70;99.90;;;;;;5109139;28;20023;-58
2021/09/30 07:20:40;;;;;;;8.30;2.17;;;10.50;99.90;;;;;;5098754;28;20032;-58
2021/09/30 07:23:07;;;;;;;8.73;3.20;;;10.50;99.90;;;;;;5108520;28;20088;-57
2021/09/30 07:25:33;;;;;;;7.07;2.70;;;10.40;99.90;;;;;;5107789;28;20110;-57
2021/09/30 07:27:58;;;;;;;6.45;2.70;;;10.40;99.90;;;;;;5108445;28;20024;-57
2021/09/30 07:30:24;;;;;;;6.95;2.58;;;10.40;99.90;;;;;;5099236;28;20035;-57
2021/09/30 07:32:49;;;;;;;5.38;2.30;;;10.30;99.90;;;;;;5103419;28;20028;-56
2021/09/30 07:35:15;;;;;;;7.80;2.80;;;10.40;99.90;;;;;;5104171;28;20031;-55
2021/09/30 07:37:41;;;;;;;6.57;2.20;;;10.40;99.90;;;;;;5107801;28;20027;-56
2021/09/30 07:40:07;;;;;;;5.25;2.55;;;10.30;99.90;;;;;;5107111;28;20023;-55
2021/09/30 07:42:32;;;;;;;7.07;2.00;;;10.40;99.90;;;;;;5104619;28;20032;-58
2021/09/30 07:44:58;;;;;;;13.18;4.00;;;10.40;99.90;;;;;;5105883;28;20031;-57
2021/09/30 07:47:24;;;;;;;9.70;4.13;;;10.40;99.90;;;;;;5107059;28;20066;-56
2021/09/30 07:49:50;;;;;;;16.65;9.50;;;10.40;99.90;;;;;;5107505;28;20115;-55
2021/09/30 07:52:16;;;;;;;16.88;9.32;;;10.50;99.90;;;;;;5098304;28;20027;-56
2021/09/30 07:54:42;;;;;;;11.18;4.68;;;10.50;99.90;;;;;;5107468;28;20040;-55
2021/09/30 07:57:08;;;;;;;21.05;8.60;;;10.60;99.90;;;;;;5102886;28;20080;-57
2021/09/30 07:59:34;;;;;;;12.55;5.35;;;10.60;99.90;;;;;;5102581;28;20031;-57
2021/09/30 08:02:00;;;;;;;13.45;7.10;;;10.70;99.90;;;;;;5106229;28;20019;-56
2021/09/30 08:04:25;;;;;;;14.73;6.53;;;10.70;99.90;;;;;;5099868;28;20035;-55
2021/09/30 08:06:51;;;;;;;12.75;5.72;;;10.70;99.90;;;;;;5102680;28;20020;-57
2021/09/30 08:09:19;;;;;;;11.65;4.82;;;10.90;99.90;;;;;;5099380;28;20028;-57
2021/09/30 08:11:45;;;;;;;12.82;5.65;;;10.90;99.90;;;;;;5090448;28;20449;-57
2021/09/30 08:14:11;;;;;;;10.70;3.15;;;11.00;99.90;;;;;;5110643;28;20458;-56
2021/09/30 08:16:36;;;;;;;8.57;3.38;;;11.10;99.90;;;;;;5109566;28;20030;-58
2021/09/30 08:19:02;;;;;;;12.73;6.88;;;11.20;99.90;;;;;;5107101;28;20020;-57
2021/09/30 08:21:28;;;;;;;9.40;4.50;;;11.30;99.90;;;;;;5099372;28;20089;-57
2021/09/30 08:23:54;;;;;;;24.67;4.00;;;11.50;99.90;;;;;;5100862;28;20016;-57
2021/09/30 08:26:21;;;;;;;10.32;2.90;;;11.60;99.90;;;;;;5101853;28;20036;-57
2021/09/30 08:28:51;;;;;;;18.45;3.97;;;11.70;99.90;;;;;;5102363;28;20070;-58
2021/09/30 08:31:18;;;;;;;35.28;11.80;;;11.70;99.90;;;;;;5110376;28;20131;-57
2021/09/30 08:33:44;;;;;;;14.25;4.60;;;11.70;99.90;;;;;;5104081;28;20019;-58
2021/09/30 08:36:13;;;;;;;11.57;3.00;;;11.80;99.90;;;;;;5106785;28;20091;-58
2021/09/30 08:38:40;;;;;;;30.60;6.13;;;11.90;99.90;;;;;;5108790;28;20314;-57
2021/09/30 08:41:07;;;;;;;6.82;1.70;;;12.10;99.90;;;;;;5103863;28;20805;-58
2021/09/30 08:43:32;;;;;;;7.95;2.30;;;12.20;99.90;;;;;;5103839;28;22367;-58
2021/09/30 08:45:58;;;;;;;8.95;2.90;;;12.30;99.90;;;;;;5097102;28;20040;-57
2021/09/30 08:48:25;;;;;;;7.68;2.50;;;12.40;99.90;;;;;;5101566;28;20377;-57
2021/09/30 08:50:51;;;;;;;8.93;3.83;;;12.70;99.90;;;;;;5100433;28;20095;-55
2021/09/30 08:53:17;;;;;;;3.28;1.80;;;12.70;99.90;;;;;;5101183;28;20481;-58
2021/09/30 08:55:43;;;;;;;7.50;2.33;;;13.00;99.90;;;;;;5105704;28;20024;-54
2021/09/30 08:58:09;;;;;;;8.90;3.80;;;13.00;99.90;;;;;;5103032;28;20036;-58
2021/09/30 09:00:38;;;;;;;12.23;2.47;;;13.00;99.90;;;;;;5100937;28;20046;-59
2021/09/30 09:03:04;;;;;;;10.32;3.05;;;13.10;99.90;;;;;;5108611;28;20019;-59
2021/09/30 09:05:30;;;;;;;17.65;4.15;;;13.40;99.90;;;;;;5106429;28;20019;-59
2021/09/30 09:07:56;;;;;;;9.98;2.67;;;13.70;99.90;;;;;;5107879;28;20485;-57
2021/09/30 09:10:24;;;;;;;6.03;2.35;;;13.80;99.90;;;;;;5090397;28;21197;-51
2021/09/30 09:13:08;;;;;;;10.70;2.20;;;14.00;99.90;;;;;;5107114;28;20049;-56
2021/09/30 09:15:42;;;;;;;5.80;1.85;;;14.40;99.90;;;;;;5103440;28;20450;-57
2021/09/30 09:18:24;;;;;;;6.05;2.95;;;15.10;99.90;;;;;;5105051;28;20401;-57
2021/09/30 09:21:08;;;;;;;6.05;1.80;;;15.50;99.90;;;;;;5102660;28;20027;-58
2021/09/30 09:23:49;;;;;;;7.88;2.78;;;15.90;99.90;;;;;;5105174;28;20026;-58
2021/09/30 09:26:16;;;;;;;10.27;2.25;;;16.30;99.90;;;;;;5101276;28;20481;-56
2021/09/30 09:29:02;;;;;;;7.45;1.77;;;16.80;96.90;;;;;;5104511;28;20028;-57
2021/09/30 09:31:29;;;;;;;10.77;3.22;;;16.90;98.20;;;;;;5106244;28;20030;-57
2021/09/30 09:33:55;;;;;;;6.15;2.15;;;16.90;98.00;;;;;;5100597;28;20050;-57
2021/09/30 09:36:26;;;;;;;12.55;4.05;;;17.00;96.60;;;;;;5094276;28;20442;-59
2021/09/30 09:38:54;;;;;;;9.55;4.50;;;16.90;96.70;;;;;;5093769;28;20580;-57
2021/09/30 09:41:23;;;;;;;5.57;1.90;;;16.80;97.50;;;;;;5104863;28;20459;-59
2021/09/30 09:43:51;;;;;;;4.70;1.50;;;16.70;97.50;;;;;;5109315;27;20433;-58
2021/09/30 09:46:18;;;;;;;10.40;3.05;;;16.50;97.50;;;;;;5110399;28;20023;-58
2021/09/30 09:49:03;;;;;;;7.13;2.90;;;16.60;98.10;;;;;;5107833;28;20020;-58
2021/09/30 09:51:52;;;;;;;13.93;2.60;;;16.50;96.60;;;;;;5096992;28;20035;-58
2021/09/30 09:54:25;;;;;;;7.28;1.83;;;16.70;96.60;;;;;;5106681;28;20074;-59
2021/09/30 09:56:51;;;;;;;5.18;1.80;;;17.40;97.10;;;;;;5110098;28;20495;-59
2021/09/30 09:59:33;;;;;;;3.90;1.20;;;17.30;93.70;;;;;;5108927;28;20107;-57
2021/09/30 10:02:00;;;;;;;7.78;1.85;;;17.70;93.90;;;;;;5110891;28;20032;-60
2021/09/30 10:04:27;;;;;;;7.32;2.55;;;17.50;93.90;;;;;;5106097;28;20080;-59
2021/09/30 10:06:52;;;;;;;5.65;1.80;;;17.50;94.30;;;;;;5105270;28;20027;-59
2021/09/30 10:09:18;;;;;;;5.90;2.13;;;17.60;94.10;;;;;;5099885;28;20552;-59
2021/09/30 10:11:44;;;;;;;10.32;2.15;;;17.70;93.10;;;;;;5076899;27;20039;-59
2021/09/30 10:14:10;;;;;;;5.25;1.42;;;17.50;94.40;;;;;;5097087;28;20080;-59
2021/09/30 10:16:37;;;;;;;3.17;1.50;;;17.40;93.60;;;;;;5094522;28;20028;-59
2021/09/30 10:19:07;;;;;;;4.88;2.22;;;17.00;94.40;;;;;;5101522;28;20028;-56
2021/09/30 10:21:34;;;;;;;6.32;2.20;;;16.70;95.00;;;;;;5109212;28;20043;-58
2021/09/30 10:24:04;;;;;;;9.32;2.00;;;16.40;95.20;;;;;;5102142;28;20073;-57
2021/09/30 10:26:45;;;;;;;4.65;1.20;;;16.60;95.80;;;;;;5109151;28;20027;-56
2021/09/30 10:29:45;;;;;;;5.82;1.65;;;16.20;94.00;;;;;;5102279;28;20196;-56
2021/09/30 10:32:15;;;;;;;8.90;1.40;;;15.70;94.20;;;;;;5108770;28;20035;-58
2021/09/30 10:34:43;;;;;;;9.93;1.70;;;15.30;95.90;;;;;;5104862;28;20024;-59
2021/09/30 10:37:18;;;;;;;6.82;3.15;;;15.30;95.80;;;;;;5108698;28;20020;-59
2021/09/30 10:39:48;;;;;;;5.80;1.75;;;15.40;96.10;;;;;;5103545;28;20030;-57
2021/09/30 10:42:40;;;;;;;8.05;3.45;;;15.70;95.60;;;;;;5100996;28;20028;-56
2021/09/30 10:45:15;;;;;;;5.68;2.72;;;15.60;93.80;;;;;;5102231;28;20026;-59
2021/09/30 10:47:41;;;;;;;13.45;5.28;;;15.80;95.10;;;;;;5105761;28;20027;-58
2021/09/30 10:50:08;;;;;;;6.03;2.67;;;15.70;94.30;;;;;;5098453;28;20130;-58
2021/09/30 10:52:35;;;;;;;7.43;2.75;;;15.60;94.30;;;;;;5101609;28;20016;-58
2021/09/30 10:55:21;;;;;;;7.97;3.80;;;15.70;94.70;;;;;;5097927;28;20032;-57
2021/09/30 10:57:49;;;;;;;28.60;6.03;;;15.60;95.40;;;;;;5107523;28;20143;-58
2021/09/30 11:00:17;;;;;;;9.70;1.90;;;15.70;95.30;;;;;;5101783;28;20034;-59
2021/09/30 11:03:01;;;;;;;10.88;1.55;;;15.90;94.70;;;;;;5101056;28;20012;-58
2021/09/30 11:05:27;;;;;;;;;;;16.20;95.20;;;;;;5100127;28;20119;-57
2021/09/30 11:08:23;;;;;;;3.88;1.20;;;16.30;94.00;;;;;;5109236;28;20007;-57
2021/09/30 11:11:01;;;;;;;4.50;1.40;;;16.30;94.40;;;;;;5088828;28;20080;-58
2021/09/30 11:13:30;;;;;;;12.57;2.25;;;16.50;94.50;;;;;;5107348;28;20297;-58
2021/09/30 11:16:02;;;;;;;12.55;1.95;;;16.60;93.30;;;;;;5107593;28;20016;-55
2021/09/30 11:18:53;;;;;;;8.15;2.30;;;16.80;93.60;;;;;;5099235;28;20024;-56
2021/09/30 11:21:30;;;;;;;5.03;1.52;;;17.20;94.00;;;;;;5103230;28;20508;-58
2021/09/30 11:23:56;;;;;;;10.77;1.65;;;17.10;93.40;;;;;;5104366;28;20027;-57
2021/09/30 11:26:22;;;;;;;2.97;1.30;;;17.00;92.70;;;;;;5109144;28;20027;-58
2021/09/30 11:28:51;;;;;;;6.50;1.92;;;16.80;93.30;;;;;;5105289;28;20050;-56
2021/09/30 11:31:37;;;;;;;5.55;1.35;;;16.40;93.00;;;;;;5106366;28;20040;-57
2021/09/30 11:34:02;;;;;;;10.73;1.30;;;16.50;93.80;;;;;;5104834;28;20382;-58
2021/09/30 11:36:33;;;;;;;4.43;1.30;;;16.70;93.00;;;;;;5108774;28;20043;-59
2021/09/30 11:38:59;;;;;;;8.15;1.95;;;16.40;92.50;;;;;;5104822;28;20054;-59
2021/09/30 11:41:33;;;;;;;3.92;1.13;;;16.60;93.50;;;;;;5111554;28;20133;-59
2021/09/30 11:43:59;;;;;;;;;;;16.80;93.60;;;;;;5109949;28;20085;-58
2021/09/30 11:46:33;;;;;;;7.53;1.58;;;16.60;92.50;;;;;;5113112;28;19916;-59
2021/09/30 11:49:05;;;;;;;2.63;0.95;;;16.40;92.20;;;;;;5110245;28;20032;-56
2021/09/30 11:51:33;;;;;;;3.20;1.05;;;16.10;93.60;;;;;;5104645;28;20035;-59
2021/09/30 11:53:59;;;;;;;16.38;2.22;;;16.00;92.90;;;;;;5098562;28;20705;-57
2021/09/30 11:56:25;;;;;;;15.05;1.80;;;15.90;93.30;;;;;;5104268;28;20027;-58
2021/09/30 11:59:02;;;;;;;3.25;1.42;;;16.00;94.50;;;;;;5099934;28;20084;-58
2021/09/30 12:01:41;;;;;;;5.53;1.45;;;15.90;93.50;;;;;;5108808;28;20511;-58
2021/09/30 12:04:08;;;;;;;7.25;1.90;;;15.90;93.10;;;;;;5103164;28;20520;-58
2021/09/30 12:06:47;;;;;;;3.85;1.42;;;16.00;93.60;;;;;;5111834;28;20028;-58
2021/09/30 12:09:14;;;;;;;5.22;1.70;;;16.10;93.80;;;;;;5104480;28;20020;-57
2021/09/30 12:11:50;;;;;;;7.07;1.67;;;16.10;93.90;;;;;;5094956;28;20051;-58
2021/09/30 12:14:16;;;;;;;6.28;1.20;;;16.10;93.20;;;;;;5108904;28;20382;-59
2021/09/30 12:16:58;;;;;;;5.75;1.45;;;16.20;92.50;;;;;;5112181;28;20027;-57
2021/09/30 12:19:31;;;;;;;6.10;1.88;;;16.40;93.30;;;;;;5102591;28;20039;-57
2021/09/30 12:21:56;;;;;;;3.97;1.55;;;16.50;91.40;;;;;;5107533;28;20076;-59
2021/09/30 12:24:29;;;;;;;5.18;1.15;;;16.60;90.10;;;;;;5110020;28;20028;-59
2021/09/30 12:26:56;;;;;;;3.95;1.00;;;16.70;90.00;;;;;;5111162;28;20027;-59
2021/09/30 12:29:22;;;;;;;6.22;1.50;;;16.80;90.60;;;;;;5104442;28;20043;-59
2021/09/30 12:32:09;;;;;;;6.10;1.50;;;17.00;89.40;;;;;;5110120;28;20050;-59
2021/09/30 12:34:35;;;;;;;9.23;1.40;;;16.90;87.50;;;;;;5108695;28;20107;-54
2021/09/30 12:37:01;;;;;;;4.22;1.00;;;17.00;89.50;;;;;;5111974;28;20659;-56
2021/09/30 12:39:28;;;;;;;5.30;1.30;;;17.10;88.50;;;;;;5107688;28;20115;-59
2021/09/30 12:41:55;;;;;;;7.82;1.50;;;17.10;90.20;;;;;;5109292;28;20082;-59
2021/09/30 12:44:21;;;;;;;11.48;2.35;;;17.10;89.60;;;;;;5107790;28;20385;-56
2021/09/30 12:46:51;;;;;;;9.80;1.48;;;16.90;90.10;;;;;;5105523;28;20020;-58
2021/09/30 12:49:20;;;;;;;8.25;1.50;;;16.90;90.40;;;;;;5098188;28;20060;-57
2021/09/30 12:51:46;;;;;;;7.18;1.60;;;16.80;91.20;;;;;;5111108;28;20030;-59
2021/09/30 12:54:12;;;;;;;7.10;1.30;;;17.10;90.70;;;;;;5107972;28;20058;-59
2021/09/30 12:56:38;;;;;;;9.20;1.95;;;17.10;91.40;;;;;;5111100;28;20458;-59
2021/09/30 12:59:14;;;;;;;10.90;1.58;;;17.20;91.20;;;;;;5107016;28;20051;-57
2021/09/30 13:01:41;;;;;;;9.18;1.48;;;17.40;91.30;;;;;;5105200;28;20016;-60
2021/09/30 13:04:09;;;;;;;7.63;2.35;;;17.50;90.10;;;;;;5106107;28;20426;-58
2021/09/30 13:06:35;;;;;;;7.60;1.38;;;17.50;90.50;;;;;;5109806;28;20015;-57
2021/09/30 13:09:02;;;;;;;5.40;1.40;;;17.60;89.10;;;;;;5109020;28;20544;-58
2021/09/30 13:11:34;;;;;;;5.20;1.65;;;17.50;89.00;;;;;;5086960;28;20097;-58
2021/09/30 13:14:22;;;;;;;6.30;2.50;;;17.40;90.10;;;;;;5110115;28;20027;-59
2021/09/30 13:17:06;;;;;;;5.50;2.05;;;17.20;90.80;;;;;;5111079;28;20019;-58
2021/09/30 13:19:49;;;;;;;;;;;17.00;90.90;;;;;;5101044;28;20485;-59
2021/09/30 13:22:39;;;;;;;5.40;1.50;;;17.20;91.10;;;;;;5104259;28;19912;-57
2021/09/30 13:25:15;;;;;;;7.20;3.10;;;17.10;90.60;;;;;;5109492;28;20068;-58
2021/09/30 13:27:41;;;;;;;9.20;3.30;;;17.10;91.00;;;;;;5105015;28;20028;-55
2021/09/30 13:30:11;;;;;;;4.50;1.23;;;17.00;90.20;;;;;;5105546;28;20115;-56
2021/09/30 13:32:37;;;;;;;7.28;2.50;;;16.80;90.30;;;;;;5101809;28;20032;-59
2021/09/30 13:35:04;;;;;;;3.35;1.13;;;16.80;92.10;;;;;;5094148;28;20507;-59
2021/09/30 13:37:30;;;;;;;5.07;1.20;;;16.60;90.10;;;;;;5104089;28;20028;-59
2021/09/30 13:39:56;;;;;;;3.63;1.02;;;16.60;90.60;;;;;;5099738;28;20038;-56
2021/09/30 13:42:23;;;;;;;3.85;1.60;;;16.50;90.60;;;;;;5110473;28;20027;-56
2021/09/30 13:44:49;;;;;;;5.88;1.13;;;16.60;90.30;;;;;;5100903;28;20171;-58
2021/09/30 13:47:15;;;;;;;4.25;1.20;;;16.40;90.20;;;;;;5110812;28;20039;-58
2021/09/30 13:49:40;;;;;;;3.83;1.38;;;16.20;90.50;;;;;;5102840;28;20031;-59
2021/09/30 13:52:06;;;;;;;4.63;1.33;;;16.20;91.10;;;;;;5106931;28;20028;-57
2021/09/30 13:54:32;;;;;;;3.92;1.00;;;16.20;91.00;;;;;;5099859;28;20020;-59
2021/09/30 13:56:57;;;;;;;5.97;1.10;;;16.30;91.80;;;;;;5109971;28;20060;-57
2021/09/30 13:59:23;;;;;;;5.20;1.50;;;16.10;91.70;;;;;;5105391;28;20423;-58
2021/09/30 14:01:48;;;;;;;5.22;1.40;;;16.30;91.50;;;;;;5102179;28;20033;-57
2021/09/30 14:04:14;;;;;;;5.38;1.17;;;16.30;92.00;;;;;;5101190;28;20049;-59
2021/09/30 14:06:39;;;;;;;3.22;1.02;;;16.30;91.80;;;;;;5108968;28;20027;-58
2021/09/30 14:09:05;;;;;;;2.65;0.75;;;16.30;91.70;;;;;;5099484;28;20357;-59
2021/09/30 14:11:31;;;;;;;13.68;2.33;;;16.30;91.80;;;;;;5091955;28;20469;-59
2021/09/30 14:13:56;;;;;;;10.77;1.50;;;16.20;92.20;;;;;;5104071;28;20031;-60
2021/09/30 14:16:24;;;;;;;3.13;1.27;;;16.30;92.50;;;;;;5100613;28;20035;-58
2021/09/30 14:18:51;;;;;;;5.20;1.40;;;16.30;92.70;;;;;;5103417;28;20431;-57
2021/09/30 14:21:18;;;;;;;3.10;0.90;;;16.50;93.30;;;;;;5095456;28;20028;-57
2021/09/30 14:23:44;;;;;;;8.40;1.73;;;16.50;92.30;;;;;;5104588;28;20019;-58
2021/09/30 14:26:10;;;;;;;5.35;1.02;;;16.70;91.80;;;;;;5103325;28;20112;-58
2021/09/30 14:28:36;;;;;;;5.18;1.30;;;16.70;91.90;;;;;;5098738;28;20043;-58
2021/09/30 14:31:01;;;;;;;5.70;1.20;;;16.80;92.40;;;;;;5106642;28;20125;-59
2021/09/30 14:33:29;;;;;;;3.85;1.10;;;16.70;91.30;;;;;;5102166;28;20027;-57
2021/09/30 14:35:55;;;;;;;7.22;1.50;;;16.80;91.70;;;;;;5102232;28;20028;-59
2021/09/30 14:38:22;;;;;;;7.60;1.38;;;17.00;92.20;;;;;;5106890;28;20032;-56
2021/09/30 14:40:50;;;;;;;4.05;1.10;;;17.10;90.50;;;;;;5103515;28;20023;-59
2021/09/30 14:43:22;;;;;;;5.15;1.40;;;17.20;91.20;;;;;;5106397;28;20024;-58
2021/09/30 14:45:50;;;;;;;5.80;1.27;;;17.20;91.70;;;;;;5103419;28;20051;-59
2021/09/30 14:48:15;;;;;;;4.90;0.73;;;17.00;91.10;;;;;;5109437;28;20015;-59
2021/09/30 14:50:41;;;;;;;5.88;1.30;;;17.00;91.20;;;;;;5109025;28;20034;-57
2021/09/30 14:53:09;;;;;;;5.25;1.20;;;16.80;91.10;;;;;;5107154;28;20112;-59
2021/09/30 14:55:35;;;;;;;5.20;1.17;;;16.60;91.20;;;;;;5100563;28;20035;-59
2021/09/30 14:58:01;;;;;;;4.63;1.30;;;16.40;91.00;;;;;;5106617;28;20035;-58
2021/09/30 15:00:27;;;;;;;6.03;1.20;;;16.30;91.70;;;;;;5104017;28;20028;-57
2021/09/30 15:02:52;;;;;;;3.78;1.10;;;16.20;91.70;;;;;;5100891;28;20050;-59
2021/09/30 15:05:18;;;;;;;7.65;1.40;;;16.10;91.80;;;;;;5095416;28;20439;-58
2021/09/30 15:07:44;;;;;;;4.25;1.00;;;16.10;92.50;;;;;;5094519;28;20741;-58
2021/09/30 15:10:10;;;;;;;8.75;1.50;;;15.90;92.40;;;;;;5092814;28;20040;-56
2021/09/30 15:12:36;;;;;;;5.35;1.20;;;15.90;92.90;;;;;;5073803;28;20412;-58
2021/09/30 15:15:03;;;;;;;3.95;1.40;;;15.80;93.40;;;;;;5091096;28;20024;-58
2021/09/30 15:17:46;;;;;;;2.78;1.27;;;15.70;92.40;;;;;;5104130;28;20105;-58
2021/09/30 15:22:40;;;;;;;6.47;1.40;;;15.60;93.30;;;;;;5106827;28;20023;-57
2021/09/30 15:25:07;;;;;;;9.63;1.58;;;15.60;93.50;;;;;;5104496;28;20050;-58
2021/09/30 15:27:35;;;;;;;3.95;1.13;;;15.50;93.40;;;;;;5109858;28;20626;-55
2021/09/30 15:30:01;;;;;;;8.65;1.50;;;15.50;93.30;;;;;;5095320;28;20027;-59
2021/09/30 15:32:26;;;;;;;5.85;1.00;;;15.40;93.40;;;;;;5094120;28;20032;-57
2021/09/30 15:34:52;;;;;;;4.43;1.85;;;15.40;93.80;;;;;;5096525;28;20024;-57
2021/09/30 15:37:18;;;;;;;5.40;1.60;;;15.20;93.60;;;;;;5098648;28;20024;-58
2021/09/30 15:39:44;;;;;;;5.90;1.60;;;15.30;94.80;;;;;;5109090;28;20027;-57
2021/09/30 15:42:12;;;;;;;7.50;1.50;;;15.20;94.80;;;;;;5111270;28;20032;-57